Terminal Aerodrome Forecast
Issued by NWS Dodge City, KS

Home | Current Version | Previous Version | Graphics & Text | Print | Product List | Glossary Off
Versions: 1 2 3 4 5 6 7 8 9 10 11 12 13 14 15 16 17 18 19 20 21 22 23 24 25 26 27 28 29 30 31 32 33 34

474
FTUS43 KDDC 112320
TAFDDC
TAF
KDDC 112320Z 1200/1224 21007KT P6SM FEW250
     FM121000 32008KT P6SM SCT250
     FM121700 03010KT P6SM SCT200=

USA.gov is the U.S. government's official web portal to all federal, state and local government web resources and services.